Time;durP1;ratioP1;P1;durP2;ratioP2;P2;SDS_P1;SDS_P2;PMS_P1;PMS_P2;Temp;Humidity;BMP_temperature;BMP_pressure;BME280_temperature;BME280_humidity;BME280_pressure;Samples;Min_cycle;Max_cycle;Signal;HPM_P1;HPM_P2
2022/12/14 00:01:18;;;;;;;14.97;7.33;;;-0.60;99.90;;;;;;5114407;28;20031;-75
2022/12/14 00:03:44;;;;;;;15.43;6.87;;;-0.60;99.90;;;;;;5114210;28;20035;-75
2022/12/14 00:06:21;;;;;;;17.97;7.00;;;-0.50;99.90;;;;;;5115211;28;20570;-75
2022/12/14 00:08:50;;;;;;;19.30;7.33;;;-0.60;99.90;;;;;;5114080;28;20537;-78
2022/12/14 00:11:16;;;;;;;18.67;7.20;;;-0.60;99.90;;;;;;5114559;28;20156;-74
2022/12/14 00:13:42;;;;;;;22.77;8.30;;;-0.50;99.90;;;;;;5113967;28;20037;-74
2022/12/14 00:16:14;;;;;;;14.80;7.53;;;-0.50;99.90;;;;;;5113241;28;20024;-75
2022/12/14 00:18:40;;;;;;;15.52;6.07;;;-0.50;99.90;;;;;;5115609;28;20023;-74
2022/12/14 00:21:08;;;;;;;14.40;6.30;;;-0.50;99.90;;;;;;5113596;28;20062;-75
2022/12/14 00:23:35;;;;;;;17.97;7.00;;;-0.60;99.90;;;;;;5113885;28;20027;-74
2022/12/14 00:26:21;;;;;;;17.23;7.63;;;-0.60;99.90;;;;;;5113049;28;20043;-75
2022/12/14 00:28:48;;;;;;;15.70;7.37;;;-0.50;99.90;;;;;;5114149;28;20024;-75
2022/12/14 00:31:14;;;;;;;15.33;6.70;;;-0.50;99.90;;;;;;5113880;28;20100;-75
2022/12/14 00:33:40;;;;;;;17.43;7.83;;;-0.50;99.90;;;;;;5113779;28;20031;-74
2022/12/14 00:36:07;;;;;;;14.70;7.43;;;-0.40;99.90;;;;;;5113155;28;20027;-74
2022/12/14 00:38:34;;;;;;;17.83;7.80;;;-0.40;99.90;;;;;;5113968;28;20114;-74
2022/12/14 00:41:00;;;;;;;15.83;7.67;;;-0.40;99.90;;;;;;5114464;28;20468;-74
2022/12/14 00:43:26;;;;;;;20.03;8.27;;;-0.40;99.90;;;;;;5115023;28;20062;-74
2022/12/14 00:45:52;;;;;;;17.73;7.23;;;-0.40;99.90;;;;;;5113246;28;20055;-75
2022/12/14 00:48:20;;;;;;;16.53;7.33;;;-0.50;99.90;;;;;;5113749;28;20381;-75
2022/12/14 00:50:46;;;;;;;19.47;8.13;;;-0.50;99.90;;;;;;5114945;28;20024;-75
2022/12/14 00:53:12;;;;;;;14.13;6.43;;;-0.40;99.90;;;;;;5113096;28;20408;-74
2022/12/14 00:55:39;;;;;;;15.17;7.30;;;-0.40;99.90;;;;;;5114884;28;20025;-74
2022/12/14 00:58:06;;;;;;;16.90;7.30;;;-0.50;99.90;;;;;;5114325;28;20078;-74
2022/12/14 01:00:32;;;;;;;14.77;7.47;;;-0.40;99.90;;;;;;5114519;28;20032;-74
2022/12/14 01:02:57;;;;;;;16.27;7.47;;;-0.40;99.90;;;;;;5113723;28;20099;-75
2022/12/14 01:05:23;;;;;;;18.63;7.67;;;-0.30;99.90;;;;;;5113386;28;20069;-74
2022/12/14 01:07:49;;;;;;;16.33;7.60;;;-0.30;99.90;;;;;;5112991;28;20061;-77
2022/12/14 01:10:14;;;;;;;17.43;6.97;;;-0.30;99.90;;;;;;5114063;28;20059;-75
2022/12/14 01:12:40;;;;;;;14.27;7.20;;;-0.40;99.90;;;;;;5113252;28;20030;-74
2022/12/14 01:15:06;;;;;;;18.33;7.97;;;-0.30;99.90;;;;;;5112453;28;20034;-75
2022/12/14 01:17:31;;;;;;;19.40;7.60;;;-0.30;99.90;;;;;;5113049;28;20063;-74
2022/12/14 01:19:57;;;;;;;17.87;7.13;;;-0.30;99.90;;;;;;5112509;28;20076;-75
2022/12/14 01:22:22;;;;;;;14.80;7.47;;;-0.30;99.90;;;;;;5114070;28;20055;-74
2022/12/14 01:24:48;;;;;;;16.53;7.93;;;-0.30;99.90;;;;;;5112605;28;20027;-74
2022/12/14 01:27:14;;;;;;;16.47;7.03;;;-0.30;99.90;;;;;;5112077;28;20035;-75
2022/12/14 01:29:40;;;;;;;14.60;7.13;;;-0.30;99.90;;;;;;5112923;28;20027;-74
2022/12/14 01:32:06;;;;;;;15.13;6.97;;;-0.40;99.90;;;;;;5112050;28;20023;-75
2022/12/14 01:34:31;;;;;;;16.97;7.43;;;-0.40;99.90;;;;;;5112556;28;20027;-74
2022/12/14 01:36:57;;;;;;;18.60;7.43;;;-0.40;99.90;;;;;;5112066;28;20027;-75
2022/12/14 01:39:22;;;;;;;16.93;7.50;;;-0.40;99.90;;;;;;5112501;28;20375;-75
2022/12/14 01:41:51;;;;;;;18.20;8.17;;;-0.40;99.90;;;;;;5112476;28;20019;-74
2022/12/14 01:44:17;;;;;;;15.27;7.43;;;-0.30;99.90;;;;;;5112562;28;20028;-74
2022/12/14 01:47:05;;;;;;;16.23;7.70;;;-0.20;99.90;;;;;;5112413;28;20101;-74
2022/12/14 01:49:42;;;;;;;15.97;7.37;;;-0.20;99.90;;;;;;5113929;28;20133;-75
2022/12/14 01:52:27;;;;;;;16.93;7.37;;;-0.20;99.90;;;;;;5111975;28;20037;-75
2022/12/14 01:55:01;;;;;;;19.37;8.10;;;-0.30;99.90;;;;;;5113344;28;20368;-77
2022/12/14 01:57:50;;;;;;;15.30;7.00;;;-0.30;99.90;;;;;;5112421;28;20381;-75
2022/12/14 02:00:17;;;;;;;15.53;7.27;;;-0.30;99.90;;;;;;5111809;28;20453;-75
2022/12/14 02:03:11;;;;;;;19.47;7.90;;;-0.20;99.90;;;;;;5113526;28;20015;-74
2022/12/14 02:05:41;;;;;;;17.10;7.93;;;-0.20;99.90;;;;;;5106080;28;20042;-75
2022/12/14 02:08:08;;;;;;;13.60;6.80;;;-0.20;99.90;;;;;;5111623;28;20035;-75
2022/12/14 02:10:34;;;;;;;16.03;7.60;;;-0.20;99.90;;;;;;5112179;28;20032;-74
2022/12/14 02:13:10;;;;;;;17.40;7.40;;;-0.20;99.90;;;;;;5111413;28;20027;-75
2022/12/14 02:15:37;;;;;;;18.60;8.20;;;-0.20;99.90;;;;;;5113362;28;20106;-75
2022/12/14 02:18:07;;;;;;;15.87;7.50;;;-0.20;99.90;;;;;;5111306;28;20055;-74
2022/12/14 02:20:53;;;;;;;16.47;8.10;;;-0.20;99.90;;;;;;5112379;28;20421;-74
2022/12/14 02:23:48;;;;;;;17.90;8.00;;;-0.20;99.90;;;;;;5109060;28;20035;-74
2022/12/14 02:26:44;;;;;;;16.27;7.13;;;-0.20;99.90;;;;;;5111357;28;20032;-74
2022/12/14 02:29:46;;;;;;;17.47;8.03;;;-0.20;99.90;;;;;;5112902;28;20473;-74
2022/12/14 02:32:41;;;;;;;15.30;6.83;;;-0.20;99.90;;;;;;5111217;28;20058;-74
2022/12/14 02:35:30;;;;;;;18.13;7.57;;;-0.20;99.90;;;;;;5111281;28;20414;-75
2022/12/14 02:38:23;;;;;;;17.77;9.00;;;-0.20;99.90;;;;;;5112962;28;20032;-76
2022/12/14 02:41:14;;;;;;;17.43;7.53;;;-0.20;99.90;;;;;;5113069;28;20023;-74
2022/12/14 02:43:51;;;;;;;13.07;6.90;;;-0.20;99.90;;;;;;5112883;28;20374;-75
2022/12/14 02:46:26;;;;;;;15.17;7.50;;;-0.20;99.90;;;;;;5112642;28;20103;-75
2022/12/14 02:49:18;;;;;;;16.13;6.87;;;-0.10;99.90;;;;;;5116937;28;20038;-75
2022/12/14 02:51:54;;;;;;;19.35;7.68;;;-0.10;99.90;;;;;;5117485;28;20027;-74
2022/12/14 02:54:31;;;;;;;15.57;7.50;;;-0.10;99.90;;;;;;5115193;28;20028;-75
2022/12/14 02:57:24;;;;;;;17.70;7.70;;;-0.10;99.90;;;;;;5115479;28;20031;-78
2022/12/14 02:59:54;;;;;;;16.53;7.90;;;-0.10;99.90;;;;;;5116981;28;20023;-75
2022/12/14 03:02:19;;;;;;;18.83;7.77;;;-0.10;99.90;;;;;;5114836;28;20122;-75
2022/12/14 03:04:49;;;;;;;15.97;8.00;;;-0.10;99.90;;;;;;5115406;28;20110;-74
2022/12/14 03:07:32;;;;;;;17.00;7.63;;;-0.10;99.90;;;;;;5114925;28;20055;-74
2022/12/14 03:10:24;;;;;;;15.63;7.73;;;-0.10;99.90;;;;;;5116053;28;20023;-74
2022/12/14 03:12:55;;;;;;;16.53;7.80;;;-0.10;99.90;;;;;;5101662;28;20032;-74
2022/12/14 03:15:23;;;;;;;19.03;7.80;;;-0.10;99.90;;;;;;5114820;28;20039;-75
2022/12/14 03:17:54;;;;;;;18.77;8.30;;;-0.10;99.90;;;;;;5116635;27;20092;-75
2022/12/14 03:20:23;;;;;;;15.10;7.47;;;-0.10;99.90;;;;;;5114692;28;20023;-74
2022/12/14 03:23:01;;;;;;;17.33;8.13;;;-0.10;99.90;;;;;;5114899;28;20024;-75
2022/12/14 03:25:50;;;;;;;16.30;7.63;;;0.00;99.90;;;;;;5115571;28;20024;-75
2022/12/14 03:28:23;;;;;;;18.60;8.10;;;0.00;99.90;;;;;;5114513;28;20028;-75
2022/12/14 03:30:56;;;;;;;18.17;8.13;;;0.00;99.90;;;;;;5115014;28;20157;-74
2022/12/14 03:33:24;;;;;;;16.37;7.67;;;0.00;99.90;;;;;;5115877;28;20557;-75
2022/12/14 03:35:54;;;;;;;19.00;8.70;;;0.00;99.90;;;;;;5116216;28;20023;-74
2022/12/14 03:38:28;;;;;;;17.07;7.60;;;0.00;99.90;;;;;;5114337;28;20129;-74
2022/12/14 03:41:24;;;;;;;18.87;8.13;;;0.00;99.90;;;;;;5114806;28;20020;-74
2022/12/14 03:44:10;;;;;;;18.93;8.33;;;0.00;99.90;;;;;;5114675;28;20083;-74
2022/12/14 03:46:54;;;;;;;17.53;8.03;;;0.00;99.90;;;;;;5115019;28;20028;-74
2022/12/14 03:49:29;;;;;;;16.40;7.77;;;0.00;99.90;;;;;;5114274;28;20097;-74
2022/12/14 03:52:13;;;;;;;15.50;7.73;;;0.10;99.90;;;;;;5115849;28;20024;-74
2022/12/14 03:55:04;;;;;;;18.73;7.33;;;0.00;99.90;;;;;;5114968;28;20024;-74
2022/12/14 03:57:38;;;;;;;19.33;8.30;;;-0.10;99.90;;;;;;5115707;28;20362;-75
2022/12/14 04:00:10;;;;;;;16.77;8.03;;;-0.10;99.90;;;;;;5114424;28;20023;-75
2022/12/14 04:02:59;;;;;;;15.40;7.55;;;0.00;99.90;;;;;;5115808;28;20095;-75
2022/12/14 04:05:33;;;;;;;16.87;7.70;;;0.00;99.90;;;;;;5115128;28;20092;-75
2022/12/14 04:08:16;;;;;;;18.77;7.83;;;0.00;99.90;;;;;;5115681;28;20089;-76
2022/12/14 04:19:51;;;;;;;19.77;8.43;;;0.10;99.90;;;;;;5115025;28;20808;-75
2022/12/14 04:22:31;;;;;;;17.57;7.97;;;0.10;99.90;;;;;;5113625;28;20031;-75
2022/12/14 04:27:57;;;;;;;17.67;7.90;;;0.20;99.90;;;;;;5115190;28;20408;-74
2022/12/14 04:30:23;;;;;;;17.87;8.20;;;0.10;99.90;;;;;;5113181;28;20035;-74
2022/12/14 04:32:58;;;;;;;17.70;7.40;;;0.10;99.90;;;;;;5113779;28;20089;-75
2022/12/14 04:35:39;;;;;;;16.63;8.20;;;0.10;99.90;;;;;;5113098;28;20019;-74
2022/12/14 04:38:26;;;;;;;16.73;7.55;;;0.10;99.90;;;;;;5114282;28;20034;-76
2022/12/14 04:40:57;;;;;;;18.37;8.13;;;0.10;99.90;;;;;;5114912;28;20027;-74
2022/12/14 04:43:27;;;;;;;12.68;5.80;;;0.20;99.90;;;;;;5113105;28;20024;-75
2022/12/14 04:46:08;;;;;;;19.43;8.50;;;0.20;99.90;;;;;;5113687;28;20032;-74
2022/12/14 04:48:48;;;;;;;16.05;8.13;;;0.20;99.90;;;;;;5113609;28;20573;-74
2022/12/14 04:51:51;;;;;;;17.47;7.73;;;0.10;99.90;;;;;;5114213;28;20035;-75
2022/12/14 04:54:34;;;;;;;17.63;8.80;;;0.20;99.90;;;;;;5114086;28;20023;-75
2022/12/14 04:57:06;;;;;;;19.67;8.53;;;0.20;99.90;;;;;;5113594;28;20031;-74
2022/12/14 04:59:32;;;;;;;16.58;7.70;;;0.20;99.90;;;;;;5113583;28;20031;-75
2022/12/14 05:02:13;;;;;;;16.63;7.63;;;0.10;99.90;;;;;;5113516;28;20024;-75
2022/12/14 05:04:55;;;;;;;15.70;7.40;;;0.10;99.90;;;;;;5113554;28;20028;-74
2022/12/14 05:07:47;;;;;;;18.67;7.83;;;0.20;99.90;;;;;;5114084;28;20027;-75
2022/12/14 05:10:29;;;;;;;15.38;7.25;;;0.10;99.90;;;;;;5112501;28;20028;-75
2022/12/14 05:13:04;;;;;;;;;;;0.10;99.90;;;;;;5113577;28;20034;-75
2022/12/14 05:15:39;;;;;;;14.80;7.13;;;0.20;99.90;;;;;;5112108;28;19908;-75
2022/12/14 05:18:05;;;;;;;15.23;7.07;;;0.20;99.90;;;;;;5096767;28;20047;-78
2022/12/14 05:20:31;;;;;;;16.20;7.30;;;0.10;99.90;;;;;;5107199;28;20027;-75
2022/12/14 05:22:57;;;;;;;17.57;7.30;;;0.20;99.90;;;;;;5103189;28;20027;-75
2022/12/14 05:25:23;;;;;;;16.43;7.83;;;0.20;99.90;;;;;;5106839;28;20035;-75
2022/12/14 05:27:48;;;;;;;18.50;7.47;;;0.10;99.90;;;;;;5098326;28;20031;-75
2022/12/14 05:30:15;;;;;;;15.10;7.43;;;0.10;99.90;;;;;;5111657;28;20498;-75
2022/12/14 05:32:41;;;;;;;18.00;7.53;;;0.10;99.90;;;;;;5097960;28;20024;-75
2022/12/14 05:35:10;;;;;;;17.50;8.17;;;0.10;99.90;;;;;;5094624;28;20026;-77
2022/12/14 05:37:35;;;;;;;17.80;8.07;;;0.10;99.90;;;;;;5112318;28;20051;-74
2022/12/14 05:40:01;;;;;;;19.57;8.70;;;0.20;99.90;;;;;;5112157;28;20066;-75
2022/12/14 05:42:26;;;;;;;24.57;10.50;;;0.20;99.90;;;;;;5112927;28;20585;-75
2022/12/14 05:44:52;;;;;;;19.23;10.20;;;0.20;99.90;;;;;;5111221;28;20464;-72
2022/12/14 05:47:18;;;;;;;21.20;8.90;;;0.20;99.90;;;;;;5106631;28;20031;-72
2022/12/14 05:49:43;;;;;;;18.57;9.13;;;0.20;99.90;;;;;;5111833;28;20106;-73
2022/12/14 05:52:09;;;;;;;18.63;8.70;;;0.20;99.90;;;;;;5099665;28;20053;-73
2022/12/14 05:54:35;;;;;;;20.73;10.03;;;0.10;99.90;;;;;;5108004;28;20028;-73
2022/12/14 05:57:00;;;;;;;23.77;10.50;;;0.20;99.90;;;;;;5113209;28;20458;-73
2022/12/14 05:59:26;;;;;;;20.40;10.60;;;0.10;99.90;;;;;;5105776;28;20032;-72
2022/12/14 06:01:51;;;;;;;18.70;9.60;;;0.10;99.90;;;;;;5091757;28;20024;-72
2022/12/14 06:04:18;;;;;;;24.73;9.57;;;0.10;99.90;;;;;;5104549;28;20604;-73
2022/12/14 06:06:44;;;;;;;21.50;9.53;;;0.20;99.90;;;;;;5095139;28;20062;-72
2022/12/14 06:09:13;;;;;;;19.83;9.67;;;0.20;99.90;;;;;;5111921;28;20109;-73
2022/12/14 06:11:40;;;;;;;23.17;10.40;;;0.20;99.90;;;;;;5111450;28;20024;-73
2022/12/14 06:14:06;;;;;;;21.10;10.07;;;0.20;99.90;;;;;;5101378;28;20165;-75
2022/12/14 06:16:33;;;;;;;21.80;10.53;;;0.20;99.90;;;;;;5095686;28;20083;-73
2022/12/14 06:19:00;;;;;;;22.63;10.53;;;0.20;99.90;;;;;;5091033;28;20020;-73
2022/12/14 06:21:29;;;;;;;21.67;9.83;;;0.20;99.90;;;;;;5096165;28;20590;-73
2022/12/14 06:23:56;;;;;;;19.57;9.67;;;0.20;99.90;;;;;;5112806;28;20031;-72
2022/12/14 06:26:22;;;;;;;21.13;10.00;;;0.10;99.90;;;;;;5097458;28;20381;-73
2022/12/14 06:28:48;;;;;;;21.63;10.00;;;0.10;99.90;;;;;;5108305;28;20055;-73
2022/12/14 06:31:25;;;;;;;24.53;10.67;;;0.10;99.90;;;;;;5094172;28;20100;-73
2022/12/14 06:33:53;;;;;;;22.27;10.57;;;0.10;99.90;;;;;;5102148;28;20031;-72
2022/12/14 06:36:22;;;;;;;24.00;10.73;;;0.10;99.90;;;;;;5103420;28;20112;-72
2022/12/14 06:38:49;;;;;;;20.90;10.97;;;0.10;99.90;;;;;;5093952;28;20028;-73
2022/12/14 06:41:15;;;;;;;24.93;10.70;;;0.10;99.90;;;;;;5107904;28;20028;-73
2022/12/14 06:43:41;;;;;;;24.63;11.20;;;0.10;99.90;;;;;;5099932;28;20035;-73
2022/12/14 06:46:11;;;;;;;23.03;10.40;;;0.20;99.90;;;;;;5100733;28;20526;-76
2022/12/14 06:48:37;;;;;;;25.63;10.90;;;0.20;99.90;;;;;;5106288;28;20058;-73
2022/12/14 06:51:04;;;;;;;21.97;10.20;;;0.20;99.90;;;;;;5108796;28;20063;-72
2022/12/14 06:53:30;;;;;;;23.67;10.90;;;0.10;99.90;;;;;;5090339;28;20039;-73
2022/12/14 06:56:10;;;;;;;24.83;10.27;;;0.20;99.90;;;;;;5100453;28;20027;-73
2022/12/14 06:58:36;;;;;;;25.30;11.00;;;0.20;99.90;;;;;;5096481;28;20024;-72
2022/12/14 07:01:04;;;;;;;23.97;10.53;;;0.20;99.90;;;;;;5107626;28;20365;-73
2022/12/14 07:03:30;;;;;;;27.50;11.40;;;0.20;99.90;;;;;;5096537;28;20046;-73
2022/12/14 07:05:59;;;;;;;23.40;11.00;;;0.30;99.90;;;;;;5101157;28;20473;-72
2022/12/14 07:08:27;;;;;;;23.13;10.53;;;0.20;99.90;;;;;;5103783;28;20139;-73
2022/12/14 07:10:52;;;;;;;24.23;11.63;;;0.20;99.90;;;;;;5110718;28;20077;-73
2022/12/14 07:13:19;;;;;;;22.60;10.73;;;0.20;99.90;;;;;;5105919;28;20024;-73
2022/12/14 07:15:54;;;;;;;23.40;10.60;;;0.20;99.90;;;;;;5100224;28;20032;-73
2022/12/14 07:18:20;;;;;;;24.67;11.57;;;0.20;99.90;;;;;;5110412;28;20485;-73
2022/12/14 07:20:56;;;;;;;23.47;11.43;;;0.20;99.90;;;;;;5095582;28;20036;-73
2022/12/14 07:23:23;;;;;;;25.03;11.53;;;0.20;99.90;;;;;;5096370;28;20032;-73
2022/12/14 07:25:49;;;;;;;24.70;11.67;;;0.20;99.90;;;;;;5102080;28;20385;-73
2022/12/14 07:28:14;;;;;;;27.43;12.03;;;0.10;99.90;;;;;;5102198;28;20032;-73
2022/12/14 07:30:40;;;;;;;22.43;11.60;;;0.10;99.90;;;;;;5111000;28;20495;-72
2022/12/14 07:33:06;;;;;;;23.00;11.23;;;0.10;99.90;;;;;;5091402;28;20020;-74
2022/12/14 07:35:31;;;;;;;25.70;11.30;;;0.10;99.90;;;;;;5100130;28;20529;-73
2022/12/14 07:37:57;;;;;;;27.37;12.07;;;0.10;99.90;;;;;;5104595;28;20032;-74
2022/12/14 07:40:22;;;;;;;28.50;12.53;;;0.10;99.90;;;;;;5107253;28;20078;-73
2022/12/14 07:42:51;;;;;;;25.53;11.77;;;0.10;99.90;;;;;;5097761;28;20526;-73
2022/12/14 07:45:16;;;;;;;23.53;11.00;;;0.10;99.90;;;;;;5109192;28;20110;-73
2022/12/14 07:47:42;;;;;;;26.20;11.93;;;0.20;99.90;;;;;;5105271;28;20139;-73
2022/12/14 07:50:08;;;;;;;26.80;12.27;;;0.30;99.90;;;;;;5105035;28;20054;-76
2022/12/14 07:52:33;;;;;;;25.67;12.13;;;0.20;99.90;;;;;;5114120;28;20035;-73
2022/12/14 07:54:59;;;;;;;27.07;11.97;;;0.20;99.90;;;;;;5115902;28;20032;-73
2022/12/14 07:57:25;;;;;;;26.77;12.30;;;0.30;99.90;;;;;;5114827;28;20047;-73
2022/12/14 07:59:50;;;;;;;25.93;11.80;;;0.20;99.90;;;;;;5115213;28;20076;-73
2022/12/14 08:02:16;;;;;;;25.07;11.97;;;0.20;99.90;;;;;;5101727;28;20024;-74
2022/12/14 08:04:41;;;;;;;28.03;12.53;;;0.20;99.90;;;;;;5111325;28;20035;-73
2022/12/14 08:07:07;;;;;;;24.63;11.20;;;0.20;99.90;;;;;;5096840;28;20023;-76
2022/12/14 08:09:33;;;;;;;27.83;11.67;;;0.20;99.90;;;;;;5106630;28;20514;-74
2022/12/14 08:11:58;;;;;;;30.13;11.10;;;0.30;99.90;;;;;;5103757;28;20423;-73
2022/12/14 08:14:24;;;;;;;28.67;12.60;;;0.20;99.90;;;;;;5099444;28;20028;-73
2022/12/14 08:16:50;;;;;;;28.50;12.97;;;0.20;99.90;;;;;;5111883;28;20050;-74
2022/12/14 08:19:17;;;;;;;26.90;12.10;;;0.20;99.90;;;;;;5113059;28;20118;-74
2022/12/14 08:21:44;;;;;;;27.43;12.57;;;0.20;99.90;;;;;;5113753;28;20034;-73
2022/12/14 08:24:11;;;;;;;27.07;12.03;;;0.20;99.90;;;;;;5101627;28;20031;-76
2022/12/14 08:26:37;;;;;;;27.57;12.30;;;0.20;99.90;;;;;;5108947;28;20076;-73
2022/12/14 08:29:04;;;;;;;25.67;12.27;;;0.20;99.90;;;;;;5096542;28;20428;-73
2022/12/14 08:31:29;;;;;;;36.80;13.33;;;0.20;99.90;;;;;;5112815;28;20019;-73
2022/12/14 08:33:57;;;;;;;27.83;12.20;;;0.30;99.90;;;;;;5103603;28;20114;-73
2022/12/14 08:36:25;;;;;;;25.83;12.20;;;0.30;99.90;;;;;;5107054;28;20031;-73
2022/12/14 08:38:53;;;;;;;27.90;12.70;;;0.30;99.90;;;;;;5096904;28;20090;-74
2022/12/14 08:41:19;;;;;;;24.87;12.03;;;0.30;99.90;;;;;;5097951;28;20102;-74
2022/12/14 08:43:49;;;;;;;26.67;12.90;;;0.30;99.90;;;;;;5106047;28;20028;-73
2022/12/14 08:46:15;;;;;;;28.47;13.53;;;0.40;99.90;;;;;;5097092;28;20185;-74
2022/12/14 08:48:40;;;;;;;25.27;12.27;;;0.30;99.90;;;;;;5093015;28;20528;-73
2022/12/14 08:51:07;;;;;;;27.57;12.40;;;0.40;99.90;;;;;;5092879;28;20028;-73
2022/12/14 08:53:34;;;;;;;26.90;13.07;;;0.40;99.90;;;;;;5098967;28;20028;-73
2022/12/14 08:56:09;;;;;;;29.97;12.80;;;0.40;99.90;;;;;;5113037;28;20019;-73
2022/12/14 08:58:35;;;;;;;28.70;12.60;;;0.40;99.90;;;;;;5097372;28;20032;-73
2022/12/14 09:01:03;;;;;;;27.87;13.60;;;0.40;99.90;;;;;;5113314;28;20019;-73
2022/12/14 09:03:29;;;;;;;27.80;12.77;;;0.40;99.90;;;;;;5112652;28;20027;-73
2022/12/14 09:05:54;;;;;;;30.53;13.60;;;0.40;99.90;;;;;;5103356;28;20046;-73
2022/12/14 09:08:21;;;;;;;30.13;13.53;;;0.30;99.90;;;;;;5105303;28;20077;-73
2022/12/14 09:10:51;;;;;;;29.87;13.43;;;0.30;99.90;;;;;;5112603;28;20535;-73
2022/12/14 09:13:17;;;;;;;24.00;12.13;;;0.30;99.90;;;;;;5107634;28;20027;-73
2022/12/14 09:15:43;;;;;;;31.97;13.77;;;0.30;99.90;;;;;;5094226;28;20036;-73
2022/12/14 09:18:08;;;;;;;27.97;13.73;;;0.30;99.90;;;;;;5100246;28;20527;-73
2022/12/14 09:20:34;;;;;;;28.77;13.03;;;0.30;99.90;;;;;;5107060;28;20059;-73
2022/12/14 09:22:59;;;;;;;29.67;13.87;;;0.30;99.90;;;;;;5112643;28;20028;-73
2022/12/14 09:25:25;;;;;;;29.10;12.87;;;0.30;99.90;;;;;;5106545;28;20107;-73
2022/12/14 09:27:51;;;;;;;30.00;13.17;;;0.30;99.90;;;;;;5101328;28;20422;-73
2022/12/14 09:30:16;;;;;;;32.50;13.33;;;0.30;99.90;;;;;;5098995;28;20115;-74
2022/12/14 09:32:45;;;;;;;28.70;12.37;;;0.30;99.90;;;;;;5093614;28;20028;-73
2022/12/14 09:35:11;;;;;;;29.27;13.33;;;0.20;99.90;;;;;;5095616;28;20027;-75
2022/12/14 09:37:37;;;;;;;28.33;13.63;;;0.20;99.90;;;;;;5105942;28;20067;-73
2022/12/14 09:40:04;;;;;;;29.57;13.63;;;0.20;99.90;;;;;;5091958;28;20430;-73
2022/12/14 09:42:55;;;;;;;29.93;13.43;;;0.20;99.90;;;;;;5106939;28;20254;-73
2022/12/14 09:45:31;;;;;;;29.50;13.40;;;0.20;99.90;;;;;;5096412;28;20035;-73
2022/12/14 09:48:01;;;;;;;31.80;13.27;;;0.20;99.90;;;;;;5091734;28;20024;-74
2022/12/14 09:50:28;;;;;;;26.77;12.70;;;0.30;99.90;;;;;;5092795;28;20385;-73
2022/12/14 09:52:57;;;;;;;26.40;13.20;;;0.30;99.90;;;;;;5092803;28;20115;-73
2022/12/14 09:55:37;;;;;;;25.40;12.40;;;0.30;99.90;;;;;;5107763;28;20031;-73
2022/12/14 09:58:11;;;;;;;27.93;12.67;;;0.30;99.90;;;;;;5101757;28;20038;-73
2022/12/14 10:00:43;;;;;;;31.43;13.00;;;0.40;99.90;;;;;;5112876;28;20024;-73
2022/12/14 10:03:08;;;;;;;25.45;12.40;;;0.40;99.90;;;;;;5095309;28;20020;-74
2022/12/14 10:05:43;;;;;;;31.47;13.47;;;0.30;99.90;;;;;;5105741;28;20030;-74
2022/12/14 10:08:30;;;;;;;29.63;13.23;;;0.30;99.90;;;;;;5103304;28;20054;-73
2022/12/14 10:11:13;;;;;;;28.10;12.67;;;0.40;99.90;;;;;;5095125;28;20070;-73
2022/12/14 10:13:54;;;;;;;28.97;12.80;;;0.50;99.90;;;;;;5099131;28;20027;-73
2022/12/14 10:16:53;;;;;;;29.43;12.83;;;0.40;99.90;;;;;;5112002;28;20461;-74
2022/12/14 10:19:48;;;;;;;26.80;13.07;;;0.40;99.90;;;;;;5090860;28;20042;-73
2022/12/14 10:22:36;;;;;;;29.47;14.00;;;0.40;99.90;;;;;;5091157;28;20032;-77
2022/12/14 10:25:23;;;;;;;27.83;12.60;;;0.30;99.90;;;;;;5109503;28;20023;-73
2022/12/14 10:27:55;;;;;;;31.53;13.53;;;0.30;99.90;;;;;;5091433;28;20086;-73
2022/12/14 10:30:21;;;;;;;33.73;13.53;;;0.30;99.90;;;;;;5105357;28;20019;-74
2022/12/14 10:32:55;;;;;;;27.37;14.17;;;0.30;99.90;;;;;;5094592;28;20028;-73
2022/12/14 10:35:41;;;;;;;26.03;14.23;;;0.30;99.90;;;;;;5105763;28;20024;-74
2022/12/14 10:38:33;;;;;;;28.87;14.17;;;0.30;99.90;;;;;;5091194;28;20028;-73
2022/12/14 10:41:06;;;;;;;29.27;13.63;;;0.30;99.90;;;;;;5107846;28;20030;-74
2022/12/14 10:43:37;;;;;;;28.43;14.00;;;0.40;99.90;;;;;;5098483;28;20441;-73
2022/12/14 10:46:31;;;;;;;29.03;13.30;;;0.50;99.90;;;;;;5101628;28;20053;-74
2022/12/14 10:49:18;;;;;;;30.30;13.47;;;0.50;99.90;;;;;;5109354;28;20028;-73
2022/12/14 10:51:49;;;;;;;30.83;13.23;;;0.50;99.90;;;;;;5102937;28;20020;-73
2022/12/14 10:54:32;;;;;;;29.43;13.60;;;0.50;99.90;;;;;;5103239;28;20038;-73
2022/12/14 10:56:59;;;;;;;29.53;14.07;;;0.60;99.90;;;;;;5095871;28;20103;-73
2022/12/14 10:59:37;;;;;;;31.13;13.60;;;0.60;99.90;;;;;;5105341;28;20020;-73
2022/12/14 11:02:24;;;;;;;34.87;14.80;;;0.60;99.90;;;;;;5101798;28;20414;-73
2022/12/14 11:04:51;;;;;;;28.60;13.93;;;0.70;99.90;;;;;;5094444;28;20361;-74
2022/12/14 11:07:24;;;;;;;34.50;14.97;;;0.70;99.90;;;;;;5107648;28;20028;-74
2022/12/14 11:09:50;;;;;;;30.27;13.93;;;0.70;99.90;;;;;;5102881;28;20053;-73
2022/12/14 11:12:23;;;;;;;32.60;14.53;;;0.70;99.90;;;;;;5114270;28;20023;-73
2022/12/14 11:15:06;;;;;;;32.27;14.43;;;0.60;99.90;;;;;;5099426;28;20040;-74
2022/12/14 11:17:38;;;;;;;30.23;14.67;;;0.70;99.90;;;;;;5103176;28;20058;-74
2022/12/14 11:20:12;;;;;;;33.00;14.13;;;0.70;99.90;;;;;;5116485;28;20015;-74
2022/12/14 11:22:46;;;;;;;29.27;14.60;;;0.70;99.90;;;;;;5099304;28;20027;-73
2022/12/14 11:25:44;;;;;;;30.67;13.90;;;0.70;99.90;;;;;;5098475;28;20068;-73
2022/12/14 11:28:57;;;;;;;32.20;14.43;;;0.80;99.90;;;;;;5103062;28;20027;-73
2022/12/14 11:31:57;;;;;;;34.27;15.07;;;0.80;99.90;;;;;;5051273;28;20507;-73
2022/12/14 11:34:38;;;;;;;29.60;13.20;;;0.90;99.90;;;;;;5063255;28;20110;-73
2022/12/14 11:37:21;;;;;;;26.40;13.10;;;0.90;99.90;;;;;;5097971;28;20126;-73
2022/12/14 11:39:52;;;;;;;27.83;13.50;;;0.80;99.90;;;;;;5105897;28;20020;-73
2022/12/14 11:42:20;;;;;;;26.75;12.93;;;0.70;99.90;;;;;;5108161;28;20456;-74
2022/12/14 11:44:47;;;;;;;25.20;13.40;;;0.60;99.90;;;;;;5097608;28;20068;-73
2022/12/14 11:47:25;;;;;;;28.50;13.47;;;0.50;99.90;;;;;;5097942;28;20114;-73
2022/12/14 11:49:53;;;;;;;29.00;13.63;;;0.50;99.90;;;;;;5105202;28;20070;-73
2022/12/14 11:52:24;;;;;;;31.13;14.03;;;0.50;99.90;;;;;;5108111;28;20449;-74
2022/12/14 11:54:56;;;;;;;27.73;12.70;;;0.50;99.90;;;;;;5097455;28;20105;-74
2022/12/14 11:57:31;;;;;;;27.35;13.02;;;0.50;99.90;;;;;;5108981;28;20480;-73
2022/12/14 12:00:24;;;;;;;27.13;13.40;;;0.50;99.90;;;;;;5103803;28;20039;-73
2022/12/14 12:03:00;;;;;;;27.73;13.43;;;0.50;99.90;;;;;;5074494;28;20028;-77
2022/12/14 12:05:28;;;;;;;27.33;12.23;;;0.50;99.90;;;;;;5115593;28;20042;-73
2022/12/14 12:07:56;;;;;;;28.10;13.40;;;0.50;99.90;;;;;;5114399;28;20118;-73
2022/12/14 12:10:25;;;;;;;28.17;13.50;;;0.50;99.90;;;;;;5113969;28;20032;-74
2022/12/14 12:12:56;;;;;;;34.47;13.70;;;0.40;99.90;;;;;;5114766;28;20057;-73
2022/12/14 12:15:35;;;;;;;28.20;13.60;;;0.40;99.90;;;;;;5115721;28;20469;-73
2022/12/14 12:18:15;;;;;;;29.93;13.17;;;0.30;99.90;;;;;;5114435;28;20047;-74
2022/12/14 12:20:54;;;;;;;25.17;12.07;;;0.40;99.90;;;;;;5113498;28;20105;-73
2022/12/14 12:23:34;;;;;;;30.90;13.83;;;0.30;99.90;;;;;;5114912;28;20054;-73
2022/12/14 12:26:04;;;;;;;27.77;14.07;;;0.30;99.90;;;;;;5114513;28;20032;-73
2022/12/14 12:28:34;;;;;;;30.87;14.27;;;0.30;99.90;;;;;;5113821;28;20035;-73
2022/12/14 12:31:05;;;;;;;29.80;14.13;;;0.40;99.90;;;;;;5114157;28;20070;-73
2022/12/14 12:33:45;;;;;;;33.72;14.48;;;0.30;99.90;;;;;;5115100;28;20027;-73
2022/12/14 12:36:15;;;;;;;31.67;14.67;;;0.30;99.90;;;;;;5115387;28;20483;-73
2022/12/14 12:38:58;;;;;;;27.97;14.27;;;0.30;99.90;;;;;;5114432;28;20040;-73
2022/12/14 12:41:24;;;;;;;28.03;13.73;;;0.30;99.90;;;;;;5114663;28;20023;-74
2022/12/14 12:44:24;;;;;;;29.60;13.63;;;0.40;99.90;;;;;;5113964;28;20088;-72
2022/12/14 12:47:31;;;;;;;30.57;14.13;;;0.40;99.90;;;;;;5114171;28;20487;-73
2022/12/14 12:50:15;;;;;;;31.10;14.23;;;0.50;99.90;;;;;;5100492;28;20399;-74
2022/12/14 12:53:02;;;;;;;28.77;13.13;;;0.50;99.90;;;;;;5114643;28;20032;-73
2022/12/14 12:55:29;;;;;;;30.60;13.67;;;0.50;99.90;;;;;;5114477;28;20084;-73
2022/12/14 12:57:57;;;;;;;28.90;13.63;;;0.50;99.90;;;;;;5115020;28;20023;-73
2022/12/14 13:00:26;;;;;;;31.07;14.47;;;0.50;99.90;;;;;;5113072;28;20023;-73
2022/12/14 13:03:12;;;;;;;31.30;13.50;;;0.50;99.90;;;;;;5113637;28;20034;-73
2022/12/14 13:05:40;;;;;;;29.77;13.90;;;0.50;99.90;;;;;;5113120;28;20528;-73
2022/12/14 13:08:34;;;;;;;29.40;14.07;;;0.50;99.90;;;;;;5113408;28;20063;-73
2022/12/14 13:11:05;;;;;;;27.73;13.83;;;0.50;99.90;;;;;;5110000;28;20023;-73
2022/12/14 13:13:34;;;;;;;22.73;11.10;;;0.50;99.90;;;;;;5114599;28;20097;-73
2022/12/14 13:16:17;;;;;;;33.60;14.17;;;0.50;99.90;;;;;;5113022;28;20027;-73
2022/12/14 13:18:47;;;;;;;30.63;13.90;;;0.50;99.90;;;;;;5113811;28;20038;-73